sensor_id;sensor_type;location;lat;lon;timestamp;temperature;humidity
18741;DHT22;9499;52.472;13.448;2022-08-21T00:00:23;20.70;99.90
18741;DHT22;9499;52.472;13.448;2022-08-21T00:02:53;20.70;99.90
18741;DHT22;9499;52.472;13.448;2022-08-21T00:05:20;20.80;99.90
18741;DHT22;9499;52.472;13.448;2022-08-21T00:07:47;20.80;99.90
18741;DHT22;9499;52.472;13.448;2022-08-21T00:10:15;20.80;99.90
18741;DHT22;9499;52.472;13.448;2022-08-21T00:12:43;20.80;99.90
18741;DHT22;9499;52.472;13.448;2022-08-21T00:15:12;20.80;99.90
18741;DHT22;9499;52.472;13.448;2022-08-21T00:17:40;20.80;99.90
18741;DHT22;9499;52.472;13.448;2022-08-21T00:20:10;20.70;99.90
18741;DHT22;9499;52.472;13.448;2022-08-21T00:22:37;20.70;99.90
18741;DHT22;9499;52.472;13.448;2022-08-21T00:25:05;20.70;99.90
18741;DHT22;9499;52.472;13.448;2022-08-21T00:27:32;20.70;99.90
18741;DHT22;9499;52.472;13.448;2022-08-21T00:29:58;20.60;99.90
18741;DHT22;9499;52.472;13.448;2022-08-21T00:32:27;20.70;99.90
18741;DHT22;9499;52.472;13.448;2022-08-21T00:34:55;20.70;99.90
18741;DHT22;9499;52.472;13.448;2022-08-21T00:37:22;20.60;99.90
18741;DHT22;9499;52.472;13.448;2022-08-21T00:39:49;20.60;99.90
18741;DHT22;9499;52.472;13.448;2022-08-21T00:42:16;20.60;99.90
18741;DHT22;9499;52.472;13.448;2022-08-21T00:44:43;20.60;99.90
18741;DHT22;9499;52.472;13.448;2022-08-21T00:47:10;20.50;99.90
18741;DHT22;9499;52.472;13.448;2022-08-21T00:49:37;20.50;99.90
18741;DHT22;9499;52.472;13.448;2022-08-21T00:52:08;20.50;99.90
18741;DHT22;9499;52.472;13.448;2022-08-21T00:54:36;20.50;99.90
18741;DHT22;9499;52.472;13.448;2022-08-21T00:57:08;20.40;99.90
18741;DHT22;9499;52.472;13.448;2022-08-21T00:59:37;20.40;99.90
18741;DHT22;9499;52.472;13.448;2022-08-21T01:02:06;20.40;99.90
18741;DHT22;9499;52.472;13.448;2022-08-21T01:04:34;20.40;99.90
18741;DHT22;9499;52.472;13.448;2022-08-21T01:07:01;20.40;99.90
18741;DHT22;9499;52.472;13.448;2022-08-21T01:09:29;20.40;99.90
18741;DHT22;9499;52.472;13.448;2022-08-21T01:11:55;20.40;99.90
18741;DHT22;9499;52.472;13.448;2022-08-21T01:14:22;20.30;99.90
18741;DHT22;9499;52.472;13.448;2022-08-21T01:16:51;20.30;99.90
18741;DHT22;9499;52.472;13.448;2022-08-21T01:19:20;20.30;99.90
18741;DHT22;9499;52.472;13.448;2022-08-21T01:21:48;20.30;99.90
18741;DHT22;9499;52.472;13.448;2022-08-21T01:24:14;20.20;99.90
18741;DHT22;9499;52.472;13.448;2022-08-21T01:26:42;20.20;99.90
18741;DHT22;9499;52.472;13.448;2022-08-21T01:29:12;20.20;99.90
18741;DHT22;9499;52.472;13.448;2022-08-21T01:31:39;20.20;99.90
18741;DHT22;9499;52.472;13.448;2022-08-21T01:34:06;20.20;99.90
18741;DHT22;9499;52.472;13.448;2022-08-21T01:36:33;20.10;99.90
18741;DHT22;9499;52.472;13.448;2022-08-21T01:39:02;20.10;99.90
18741;DHT22;9499;52.472;13.448;2022-08-21T01:41:28;20.10;99.90
18741;DHT22;9499;52.472;13.448;2022-08-21T01:43:55;20.10;99.90
18741;DHT22;9499;52.472;13.448;2022-08-21T01:46:22;20.00;99.90
18741;DHT22;9499;52.472;13.448;2022-08-21T01:48:49;20.10;99.90
18741;DHT22;9499;52.472;13.448;2022-08-21T01:51:15;20.00;99.90
18741;DHT22;9499;52.472;13.448;2022-08-21T01:53:42;20.00;99.90
18741;DHT22;9499;52.472;13.448;2022-08-21T01:56:12;20.00;99.90
18741;DHT22;9499;52.472;13.448;2022-08-21T01:58:40;20.00;99.90
18741;DHT22;9499;52.472;13.448;2022-08-21T02:01:07;19.90;99.90
18741;DHT22;9499;52.472;13.448;2022-08-21T02:03:34;19.90;99.90
18741;DHT22;9499;52.472;13.448;2022-08-21T02:06:00;19.80;99.90
18741;DHT22;9499;52.472;13.448;2022-08-21T02:08:28;19.80;99.90
18741;DHT22;9499;52.472;13.448;2022-08-21T02:10:54;19.70;99.90
18741;DHT22;9499;52.472;13.448;2022-08-21T02:13:22;19.70;99.90
18741;DHT22;9499;52.472;13.448;2022-08-21T02:15:49;19.60;99.90
18741;DHT22;9499;52.472;13.448;2022-08-21T02:18:15;19.60;99.90
18741;DHT22;9499;52.472;13.448;2022-08-21T02:20:45;19.60;99.90
18741;DHT22;9499;52.472;13.448;2022-08-21T02:23:13;19.60;99.90
18741;DHT22;9499;52.472;13.448;2022-08-21T02:25:40;19.60;99.90
18741;DHT22;9499;52.472;13.448;2022-08-21T02:28:09;19.60;99.90
18741;DHT22;9499;52.472;13.448;2022-08-21T02:30:40;19.50;99.90
18741;DHT22;9499;52.472;13.448;2022-08-21T02:33:08;19.50;99.90
18741;DHT22;9499;52.472;13.448;2022-08-21T02:35:37;19.50;99.90
18741;DHT22;9499;52.472;13.448;2022-08-21T02:38:05;19.50;99.90
18741;DHT22;9499;52.472;13.448;2022-08-21T02:40:34;19.50;99.90
18741;DHT22;9499;52.472;13.448;2022-08-21T02:43:02;19.50;99.90
18741;DHT22;9499;52.472;13.448;2022-08-21T02:45:29;19.40;99.90
18741;DHT22;9499;52.472;13.448;2022-08-21T02:47:59;19.30;99.90
18741;DHT22;9499;52.472;13.448;2022-08-21T02:50:28;19.40;99.90
18741;DHT22;9499;52.472;13.448;2022-08-21T02:52:55;19.40;99.90
18741;DHT22;9499;52.472;13.448;2022-08-21T02:55:24;19.40;99.90
18741;DHT22;9499;52.472;13.448;2022-08-21T02:57:51;19.30;99.90
18741;DHT22;9499;52.472;13.448;2022-08-21T03:00:18;19.30;99.90
18741;DHT22;9499;52.472;13.448;2022-08-21T03:02:46;19.20;99.90
18741;DHT22;9499;52.472;13.448;2022-08-21T03:05:14;19.10;99.90
18741;DHT22;9499;52.472;13.448;2022-08-21T03:07:41;19.10;99.90
18741;DHT22;9499;52.472;13.448;2022-08-21T03:10:09;19.20;99.90
18741;DHT22;9499;52.472;13.448;2022-08-21T03:12:36;19.20;99.90
18741;DHT22;9499;52.472;13.448;2022-08-21T03:15:03;19.10;99.90
18741;DHT22;9499;52.472;13.448;2022-08-21T03:17:30;19.10;99.90
18741;DHT22;9499;52.472;13.448;2022-08-21T03:19:57;19.10;99.90
18741;DHT22;9499;52.472;13.448;2022-08-21T03:22:25;19.10;99.90
18741;DHT22;9499;52.472;13.448;2022-08-21T03:24:51;19.10;99.90
18741;DHT22;9499;52.472;13.448;2022-08-21T03:27:18;19.10;99.90
18741;DHT22;9499;52.472;13.448;2022-08-21T03:29:45;19.00;99.90
18741;DHT22;9499;52.472;13.448;2022-08-21T03:32:12;19.00;99.90
18741;DHT22;9499;52.472;13.448;2022-08-21T03:34:39;19.00;99.90
18741;DHT22;9499;52.472;13.448;2022-08-21T03:37:07;19.00;99.90
18741;DHT22;9499;52.472;13.448;2022-08-21T03:39:35;19.00;99.90
18741;DHT22;9499;52.472;13.448;2022-08-21T03:42:01;19.00;99.90
18741;DHT22;9499;52.472;13.448;2022-08-21T03:44:28;19.00;99.90
18741;DHT22;9499;52.472;13.448;2022-08-21T03:46:55;19.00;99.90
18741;DHT22;9499;52.472;13.448;2022-08-21T03:49:22;18.90;99.90
18741;DHT22;9499;52.472;13.448;2022-08-21T03:51:48;19.00;99.90
18741;DHT22;9499;52.472;13.448;2022-08-21T03:54:15;19.00;99.90
18741;DHT22;9499;52.472;13.448;2022-08-21T03:56:43;18.90;99.90
18741;DHT22;9499;52.472;13.448;2022-08-21T03:59:10;18.90;99.90
18741;DHT22;9499;52.472;13.448;2022-08-21T04:01:37;18.90;99.90
18741;DHT22;9499;52.472;13.448;2022-08-21T04:04:04;18.80;99.90
18741;DHT22;9499;52.472;13.448;2022-08-21T04:06:31;18.80;99.90
18741;DHT22;9499;52.472;13.448;2022-08-21T04:08:57;18.80;99.90
18741;DHT22;9499;52.472;13.448;2022-08-21T04:11:24;18.80;99.90
18741;DHT22;9499;52.472;13.448;2022-08-21T04:13:52;18.80;99.90
18741;DHT22;9499;52.472;13.448;2022-08-21T04:16:18;18.80;99.90
18741;DHT22;9499;52.472;13.448;2022-08-21T04:18:45;18.80;99.90
18741;DHT22;9499;52.472;13.448;2022-08-21T04:21:12;18.70;99.90
18741;DHT22;9499;52.472;13.448;2022-08-21T04:23:38;18.70;99.90
18741;DHT22;9499;52.472;13.448;2022-08-21T04:26:05;18.70;99.90
18741;DHT22;9499;52.472;13.448;2022-08-21T04:28:32;18.70;99.90
18741;DHT22;9499;52.472;13.448;2022-08-21T04:31:00;18.60;99.90
18741;DHT22;9499;52.472;13.448;2022-08-21T04:33:26;18.60;99.90
18741;DHT22;9499;52.472;13.448;2022-08-21T04:35:53;18.60;99.90
18741;DHT22;9499;52.472;13.448;2022-08-21T04:38:20;18.60;99.90
18741;DHT22;9499;52.472;13.448;2022-08-21T04:40:48;18.70;99.90
18741;DHT22;9499;52.472;13.448;2022-08-21T04:43:15;18.70;99.90
18741;DHT22;9499;52.472;13.448;2022-08-21T04:45:44;18.70;99.90
18741;DHT22;9499;52.472;13.448;2022-08-21T04:48:15;18.60;99.90
18741;DHT22;9499;52.472;13.448;2022-08-21T04:50:46;18.70;99.90
18741;DHT22;9499;52.472;13.448;2022-08-21T04:53:16;18.60;99.90
18741;DHT22;9499;52.472;13.448;2022-08-21T04:55:44;18.60;99.90
18741;DHT22;9499;52.472;13.448;2022-08-21T04:58:11;18.70;99.90
18741;DHT22;9499;52.472;13.448;2022-08-21T05:00:38;18.70;99.90
18741;DHT22;9499;52.472;13.448;2022-08-21T05:03:08;18.70;99.90
18741;DHT22;9499;52.472;13.448;2022-08-21T05:05:37;18.70;99.90
18741;DHT22;9499;52.472;13.448;2022-08-21T05:08:05;18.70;99.90
18741;DHT22;9499;52.472;13.448;2022-08-21T05:10:33;18.60;99.90
18741;DHT22;9499;52.472;13.448;2022-08-21T05:12:59;18.60;99.90
18741;DHT22;9499;52.472;13.448;2022-08-21T05:15:26;18.60;99.90
18741;DHT22;9499;52.472;13.448;2022-08-21T05:17:53;18.60;99.90
18741;DHT22;9499;52.472;13.448;2022-08-21T05:20:19;18.60;99.90
18741;DHT22;9499;52.472;13.448;2022-08-21T05:22:47;18.60;99.90
18741;DHT22;9499;52.472;13.448;2022-08-21T05:25:14;18.50;99.90
18741;DHT22;9499;52.472;13.448;2022-08-21T05:27:40;18.60;99.90
18741;DHT22;9499;52.472;13.448;2022-08-21T05:30:09;18.60;99.90
18741;DHT22;9499;52.472;13.448;2022-08-21T05:32:36;18.70;99.90
18741;DHT22;9499;52.472;13.448;2022-08-21T05:35:05;18.60;99.90
18741;DHT22;9499;52.472;13.448;2022-08-21T05:37:32;18.60;99.90
18741;DHT22;9499;52.472;13.448;2022-08-21T05:40:01;18.60;99.90
18741;DHT22;9499;52.472;13.448;2022-08-21T05:42:28;18.60;99.90
18741;DHT22;9499;52.472;13.448;2022-08-21T05:44:55;18.50;99.90
18741;DHT22;9499;52.472;13.448;2022-08-21T05:47:22;18.50;99.90
18741;DHT22;9499;52.472;13.448;2022-08-21T05:49:48;18.60;99.90
18741;DHT22;9499;52.472;13.448;2022-08-21T05:52:18;18.60;99.90
18741;DHT22;9499;52.472;13.448;2022-08-21T05:54:45;18.70;99.90
18741;DHT22;9499;52.472;13.448;2022-08-21T05:57:13;18.80;99.90
18741;DHT22;9499;52.472;13.448;2022-08-21T05:59:39;18.80;99.90
18741;DHT22;9499;52.472;13.448;2022-08-21T06:02:06;18.80;99.90
18741;DHT22;9499;52.472;13.448;2022-08-21T06:04:35;18.80;99.90
18741;DHT22;9499;52.472;13.448;2022-08-21T06:07:02;18.80;99.90
18741;DHT22;9499;52.472;13.448;2022-08-21T06:09:29;18.80;99.90
18741;DHT22;9499;52.472;13.448;2022-08-21T06:11:56;18.80;99.90
18741;DHT22;9499;52.472;13.448;2022-08-21T06:14:23;18.90;99.90
18741;DHT22;9499;52.472;13.448;2022-08-21T06:16:50;18.90;99.90
18741;DHT22;9499;52.472;13.448;2022-08-21T06:19:16;18.90;99.90
18741;DHT22;9499;52.472;13.448;2022-08-21T06:21:43;18.80;99.90
18741;DHT22;9499;52.472;13.448;2022-08-21T06:24:09;18.90;99.90
18741;DHT22;9499;52.472;13.448;2022-08-21T06:26:36;18.90;99.90
18741;DHT22;9499;52.472;13.448;2022-08-21T06:29:02;19.00;99.90
18741;DHT22;9499;52.472;13.448;2022-08-21T06:31:30;19.10;99.90
18741;DHT22;9499;52.472;13.448;2022-08-21T06:33:57;19.00;99.90
18741;DHT22;9499;52.472;13.448;2022-08-21T06:36:23;19.10;99.90
18741;DHT22;9499;52.472;13.448;2022-08-21T06:38:50;19.10;99.90
18741;DHT22;9499;52.472;13.448;2022-08-21T06:41:17;19.10;99.90
18741;DHT22;9499;52.472;13.448;2022-08-21T06:43:43;19.10;99.90
18741;DHT22;9499;52.472;13.448;2022-08-21T06:46:10;19.10;99.90
18741;DHT22;9499;52.472;13.448;2022-08-21T06:48:38;19.10;99.90
18741;DHT22;9499;52.472;13.448;2022-08-21T06:51:04;19.20;99.90
18741;DHT22;9499;52.472;13.448;2022-08-21T06:53:31;19.20;99.90
18741;DHT22;9499;52.472;13.448;2022-08-21T06:55:58;19.20;99.90
18741;DHT22;9499;52.472;13.448;2022-08-21T06:58:24;19.20;99.90
18741;DHT22;9499;52.472;13.448;2022-08-21T07:00:51;19.20;99.90
18741;DHT22;9499;52.472;13.448;2022-08-21T07:03:19;19.20;99.90
18741;DHT22;9499;52.472;13.448;2022-08-21T07:05:48;19.20;99.90
18741;DHT22;9499;52.472;13.448;2022-08-21T07:08:14;19.30;99.90
18741;DHT22;9499;52.472;13.448;2022-08-21T07:10:41;19.40;99.90
18741;DHT22;9499;52.472;13.448;2022-08-21T07:13:08;19.40;99.90
18741;DHT22;9499;52.472;13.448;2022-08-21T07:15:34;19.40;99.90
18741;DHT22;9499;52.472;13.448;2022-08-21T07:18:01;19.40;99.90
18741;DHT22;9499;52.472;13.448;2022-08-21T07:20:29;19.50;99.90
18741;DHT22;9499;52.472;13.448;2022-08-21T07:23:00;19.60;99.90
18741;DHT22;9499;52.472;13.448;2022-08-21T07:25:27;19.70;99.90
18741;DHT22;9499;52.472;13.448;2022-08-21T07:27:54;19.70;99.90
18741;DHT22;9499;52.472;13.448;2022-08-21T07:30:21;19.70;99.90
18741;DHT22;9499;52.472;13.448;2022-08-21T07:32:48;19.70;99.90
18741;DHT22;9499;52.472;13.448;2022-08-21T07:35:15;19.70;99.90
18741;DHT22;9499;52.472;13.448;2022-08-21T07:37:41;19.80;99.90
18741;DHT22;9499;52.472;13.448;2022-08-21T07:40:10;19.80;99.90
18741;DHT22;9499;52.472;13.448;2022-08-21T07:42:40;19.90;99.90
18741;DHT22;9499;52.472;13.448;2022-08-21T07:45:08;20.00;99.90
18741;DHT22;9499;52.472;13.448;2022-08-21T07:47:35;20.00;99.90
18741;DHT22;9499;52.472;13.448;2022-08-21T07:50:01;20.10;99.90
18741;DHT22;9499;52.472;13.448;2022-08-21T07:52:28;20.20;99.90
18741;DHT22;9499;52.472;13.448;2022-08-21T07:54:54;20.20;99.90
18741;DHT22;9499;52.472;13.448;2022-08-21T07:57:22;20.20;99.90
18741;DHT22;9499;52.472;13.448;2022-08-21T07:59:48;20.30;99.90
18741;DHT22;9499;52.472;13.448;2022-08-21T08:02:22;20.30;99.90
18741;DHT22;9499;52.472;13.448;2022-08-21T08:04:49;20.40;99.90
18741;DHT22;9499;52.472;13.448;2022-08-21T08:07:15;20.50;99.90
18741;DHT22;9499;52.472;13.448;2022-08-21T08:09:42;20.50;99.90
18741;DHT22;9499;52.472;13.448;2022-08-21T08:12:09;20.50;99.90
18741;DHT22;9499;52.472;13.448;2022-08-21T08:14:37;20.70;99.90
18741;DHT22;9499;52.472;13.448;2022-08-21T08:17:03;20.80;99.90
18741;DHT22;9499;52.472;13.448;2022-08-21T08:19:30;20.80;99.90
18741;DHT22;9499;52.472;13.448;2022-08-21T08:21:56;20.80;99.90
18741;DHT22;9499;52.472;13.448;2022-08-21T08:24:23;20.80;99.90
18741;DHT22;9499;52.472;13.448;2022-08-21T08:26:49;21.00;99.90
18741;DHT22;9499;52.472;13.448;2022-08-21T08:29:16;21.00;99.90
18741;DHT22;9499;52.472;13.448;2022-08-21T08:31:44;20.90;99.90
18741;DHT22;9499;52.472;13.448;2022-08-21T08:34:10;21.00;99.90
18741;DHT22;9499;52.472;13.448;2022-08-21T08:36:37;21.20;99.90
18741;DHT22;9499;52.472;13.448;2022-08-21T08:39:04;21.20;99.90
18741;DHT22;9499;52.472;13.448;2022-08-21T08:41:32;21.30;99.90
18741;DHT22;9499;52.472;13.448;2022-08-21T08:44:02;21.40;99.90
18741;DHT22;9499;52.472;13.448;2022-08-21T08:46:34;21.50;99.90
18741;DHT22;9499;52.472;13.448;2022-08-21T08:49:06;21.60;99.90
18741;DHT22;9499;52.472;13.448;2022-08-21T08:51:39;21.60;99.90
18741;DHT22;9499;52.472;13.448;2022-08-21T08:54:11;21.50;99.90
18741;DHT22;9499;52.472;13.448;2022-08-21T08:56:38;21.50;99.90
18741;DHT22;9499;52.472;13.448;2022-08-21T08:59:09;21.50;99.90
18741;DHT22;9499;52.472;13.448;2022-08-21T09:01:39;21.60;99.90
18741;DHT22;9499;52.472;13.448;2022-08-21T09:04:09;21.50;99.90
18741;DHT22;9499;52.472;13.448;2022-08-21T09:06:46;21.50;99.90
18741;DHT22;9499;52.472;13.448;2022-08-21T09:09:24;21.50;99.90
18741;DHT22;9499;52.472;13.448;2022-08-21T09:11:57;21.60;99.90
18741;DHT22;9499;52.472;13.448;2022-08-21T09:14:37;21.70;99.90
18741;DHT22;9499;52.472;13.448;2022-08-21T09:17:13;21.80;99.90
18741;DHT22;9499;52.472;13.448;2022-08-21T09:19:56;21.90;99.90
18741;DHT22;9499;52.472;13.448;2022-08-21T09:22:33;22.00;99.90
18741;DHT22;9499;52.472;13.448;2022-08-21T09:25:08;22.00;99.90
18741;DHT22;9499;52.472;13.448;2022-08-21T09:27:35;22.00;99.90
18741;DHT22;9499;52.472;13.448;2022-08-21T09:30:04;21.90;99.90
18741;DHT22;9499;52.472;13.448;2022-08-21T09:32:34;21.80;99.90
18741;DHT22;9499;52.472;13.448;2022-08-21T09:35:05;21.80;99.90
18741;DHT22;9499;52.472;13.448;2022-08-21T09:37:34;21.90;99.90
18741;DHT22;9499;52.472;13.448;2022-08-21T09:40:17;22.00;99.90
18741;DHT22;9499;52.472;13.448;2022-08-21T09:42:54;22.10;99.90
18741;DHT22;9499;52.472;13.448;2022-08-21T09:45:21;22.20;99.90
18741;DHT22;9499;52.472;13.448;2022-08-21T09:47:47;22.20;99.90
18741;DHT22;9499;52.472;13.448;2022-08-21T09:50:17;22.10;99.90
18741;DHT22;9499;52.472;13.448;2022-08-21T09:52:48;22.20;99.90
18741;DHT22;9499;52.472;13.448;2022-08-21T09:55:20;22.30;99.90
18741;DHT22;9499;52.472;13.448;2022-08-21T09:58:07;22.30;99.90
18741;DHT22;9499;52.472;13.448;2022-08-21T10:00:35;22.40;99.90
18741;DHT22;9499;52.472;13.448;2022-08-21T10:03:10;22.40;99.90
18741;DHT22;9499;52.472;13.448;2022-08-21T10:05:39;22.40;99.90
18741;DHT22;9499;52.472;13.448;2022-08-21T10:08:17;22.50;99.90
18741;DHT22;9499;52.472;13.448;2022-08-21T10:10:43;22.70;99.90
18741;DHT22;9499;52.472;13.448;2022-08-21T10:13:13;22.80;99.90
18741;DHT22;9499;52.472;13.448;2022-08-21T10:15:48;23.00;99.90
18741;DHT22;9499;52.472;13.448;2022-08-21T10:18:22;23.00;99.90
18741;DHT22;9499;52.472;13.448;2022-08-21T10:20:59;23.00;99.90
18741;DHT22;9499;52.472;13.448;2022-08-21T10:23:43;23.00;99.90
18741;DHT22;9499;52.472;13.448;2022-08-21T10:26:25;22.90;99.90
18741;DHT22;9499;52.472;13.448;2022-08-21T10:29:02;22.80;99.90
18741;DHT22;9499;52.472;13.448;2022-08-21T10:31:39;22.70;99.90
18741;DHT22;9499;52.472;13.448;2022-08-21T10:34:23;22.70;99.90
18741;DHT22;9499;52.472;13.448;2022-08-21T10:37:06;22.70;99.90
18741;DHT22;9499;52.472;13.448;2022-08-21T10:39:39;22.80;99.90
18741;DHT22;9499;52.472;13.448;2022-08-21T10:42:21;22.90;99.90
18741;DHT22;9499;52.472;13.448;2022-08-21T10:44:58;23.10;99.90
18741;DHT22;9499;52.472;13.448;2022-08-21T10:47:31;23.30;99.90
18741;DHT22;9499;52.472;13.448;2022-08-21T10:50:12;23.40;99.90
18741;DHT22;9499;52.472;13.448;2022-08-21T10:55:43;23.30;99.90
18741;DHT22;9499;52.472;13.448;2022-08-21T10:58:16;23.20;99.90
18741;DHT22;9499;52.472;13.448;2022-08-21T11:00:47;23.10;99.90
18741;DHT22;9499;52.472;13.448;2022-08-21T11:03:17;23.10;99.90
18741;DHT22;9499;52.472;13.448;2022-08-21T11:05:48;23.10;99.90
18741;DHT22;9499;52.472;13.448;2022-08-21T11:08:21;23.30;99.90
18741;DHT22;9499;52.472;13.448;2022-08-21T11:10:53;23.50;99.90
18741;DHT22;9499;52.472;13.448;2022-08-21T11:13:27;23.80;99.90
18741;DHT22;9499;52.472;13.448;2022-08-21T11:16:02;24.20;99.90
18741;DHT22;9499;52.472;13.448;2022-08-21T11:18:34;24.40;99.90
18741;DHT22;9499;52.472;13.448;2022-08-21T11:21:14;24.40;99.90
18741;DHT22;9499;52.472;13.448;2022-08-21T11:23:46;24.40;99.90
18741;DHT22;9499;52.472;13.448;2022-08-21T11:26:19;24.60;99.90
18741;DHT22;9499;52.472;13.448;2022-08-21T11:28:54;24.80;99.90
18741;DHT22;9499;52.472;13.448;2022-08-21T11:31:36;24.80;99.90
18741;DHT22;9499;52.472;13.448;2022-08-21T11:34:15;24.70;99.90
18741;DHT22;9499;52.472;13.448;2022-08-21T11:36:51;24.80;99.90
18741;DHT22;9499;52.472;13.448;2022-08-21T11:39:25;25.00;99.90
18741;DHT22;9499;52.472;13.448;2022-08-21T11:41:58;25.50;99.90
18741;DHT22;9499;52.472;13.448;2022-08-21T11:44:40;26.00;99.90
18741;DHT22;9499;52.472;13.448;2022-08-21T11:47:15;26.00;99.90
18741;DHT22;9499;52.472;13.448;2022-08-21T11:49:53;25.80;99.90
18741;DHT22;9499;52.472;13.448;2022-08-21T11:52:30;25.70;99.90
18741;DHT22;9499;52.472;13.448;2022-08-21T11:55:02;25.80;99.90
18741;DHT22;9499;52.472;13.448;2022-08-21T11:57:34;25.90;99.90
18741;DHT22;9499;52.472;13.448;2022-08-21T12:00:05;26.20;99.90
18741;DHT22;9499;52.472;13.448;2022-08-21T12:02:36;26.10;99.90
18741;DHT22;9499;52.472;13.448;2022-08-21T12:05:06;26.20;99.90
18741;DHT22;9499;52.472;13.448;2022-08-21T12:07:36;26.50;99.40
18741;DHT22;9499;52.472;13.448;2022-08-21T12:10:08;26.70;98.30
18741;DHT22;9499;52.472;13.448;2022-08-21T12:12:36;26.70;98.00
18741;DHT22;9499;52.472;13.448;2022-08-21T12:15:22;26.70;96.80
18741;DHT22;9499;52.472;13.448;2022-08-21T12:17:56;26.80;94.60
18741;DHT22;9499;52.472;13.448;2022-08-21T12:20:35;27.00;97.10
18741;DHT22;9499;52.472;13.448;2022-08-21T12:23:12;27.20;97.30
18741;DHT22;9499;52.472;13.448;2022-08-21T12:25:44;27.20;96.00
18741;DHT22;9499;52.472;13.448;2022-08-21T12:28:14;27.10;96.60
18741;DHT22;9499;52.472;13.448;2022-08-21T12:30:44;27.20;96.00
18741;DHT22;9499;52.472;13.448;2022-08-21T12:33:23;27.30;94.40
18741;DHT22;9499;52.472;13.448;2022-08-21T12:35:52;27.50;93.90
18741;DHT22;9499;52.472;13.448;2022-08-21T12:38:21;27.80;93.80
18741;DHT22;9499;52.472;13.448;2022-08-21T12:40:53;28.00;93.70
18741;DHT22;9499;52.472;13.448;2022-08-21T12:43:25;28.30;92.80
18741;DHT22;9499;52.472;13.448;2022-08-21T12:45:53;28.10;92.00
18741;DHT22;9499;52.472;13.448;2022-08-21T12:48:23;28.10;91.60
18741;DHT22;9499;52.472;13.448;2022-08-21T12:50:53;28.20;91.60
18741;DHT22;9499;52.472;13.448;2022-08-21T12:53:26;28.30;88.60
18741;DHT22;9499;52.472;13.448;2022-08-21T12:55:57;28.20;87.70
18741;DHT22;9499;52.472;13.448;2022-08-21T12:58:29;28.30;85.60
18741;DHT22;9499;52.472;13.448;2022-08-21T13:00:58;28.30;88.70
18741;DHT22;9499;52.472;13.448;2022-08-21T13:03:26;28.10;84.70
18741;DHT22;9499;52.472;13.448;2022-08-21T13:05:53;28.30;88.50
18741;DHT22;9499;52.472;13.448;2022-08-21T13:08:21;28.40;85.90
18741;DHT22;9499;52.472;13.448;2022-08-21T13:10:58;28.50;86.80
18741;DHT22;9499;52.472;13.448;2022-08-21T13:13:26;28.50;85.80
18741;DHT22;9499;52.472;13.448;2022-08-21T13:15:57;28.70;87.00
18741;DHT22;9499;52.472;13.448;2022-08-21T13:18:28;28.80;86.50
18741;DHT22;9499;52.472;13.448;2022-08-21T13:21:05;29.00;87.90
18741;DHT22;9499;52.472;13.448;2022-08-21T13:23:32;29.00;87.30
18741;DHT22;9499;52.472;13.448;2022-08-21T13:25:59;28.50;86.20
18741;DHT22;9499;52.472;13.448;2022-08-21T13:28:33;28.50;86.20
18741;DHT22;9499;52.472;13.448;2022-08-21T13:31:00;28.70;86.30
18741;DHT22;9499;52.472;13.448;2022-08-21T13:33:29;29.00;86.10
18741;DHT22;9499;52.472;13.448;2022-08-21T13:36:03;29.10;84.60
18741;DHT22;9499;52.472;13.448;2022-08-21T13:38:33;29.20;85.70
18741;DHT22;9499;52.472;13.448;2022-08-21T13:41:04;29.40;84.50
18741;DHT22;9499;52.472;13.448;2022-08-21T13:43:34;29.50;84.10
18741;DHT22;9499;52.472;13.448;2022-08-21T13:46:02;29.70;87.90
18741;DHT22;9499;52.472;13.448;2022-08-21T13:48:34;29.80;83.60
18741;DHT22;9499;52.472;13.448;2022-08-21T13:51:01;29.20;83.70
18741;DHT22;9499;52.472;13.448;2022-08-21T13:53:30;28.40;86.00
18741;DHT22;9499;52.472;13.448;2022-08-21T13:55:58;27.70;87.70
18741;DHT22;9499;52.472;13.448;2022-08-21T13:58:28;27.30;88.50
18741;DHT22;9499;52.472;13.448;2022-08-21T14:00:55;26.90;89.90
18741;DHT22;9499;52.472;13.448;2022-08-21T14:03:34;26.70;90.50
18741;DHT22;9499;52.472;13.448;2022-08-21T14:06:02;26.70;91.10
18741;DHT22;9499;52.472;13.448;2022-08-21T14:08:32;26.80;92.10
18741;DHT22;9499;52.472;13.448;2022-08-21T14:10:59;26.80;92.40
18741;DHT22;9499;52.472;13.448;2022-08-21T14:13:35;26.60;93.10
18741;DHT22;9499;52.472;13.448;2022-08-21T14:16:11;26.70;93.00
18741;DHT22;9499;52.472;13.448;2022-08-21T14:18:48;26.90;93.20
18741;DHT22;9499;52.472;13.448;2022-08-21T14:21:27;27.10;93.90
18741;DHT22;9499;52.472;13.448;2022-08-21T14:24:03;27.50;94.00
18741;DHT22;9499;52.472;13.448;2022-08-21T14:26:31;27.50;94.10
18741;DHT22;9499;52.472;13.448;2022-08-21T14:29:00;27.30;94.40
18741;DHT22;9499;52.472;13.448;2022-08-21T14:31:30;26.90;95.20
18741;DHT22;9499;52.472;13.448;2022-08-21T14:33:58;26.50;94.90
18741;DHT22;9499;52.472;13.448;2022-08-21T14:36:25;26.30;94.40
18741;DHT22;9499;52.472;13.448;2022-08-21T14:38:52;26.20;94.80
18741;DHT22;9499;52.472;13.448;2022-08-21T14:41:21;26.00;94.80
18741;DHT22;9499;52.472;13.448;2022-08-21T14:43:48;25.90;95.60
18741;DHT22;9499;52.472;13.448;2022-08-21T14:46:21;25.80;95.60
18741;DHT22;9499;52.472;13.448;2022-08-21T14:48:48;25.80;95.80
18741;DHT22;9499;52.472;13.448;2022-08-21T14:51:16;25.80;95.70
18741;DHT22;9499;52.472;13.448;2022-08-21T14:53:43;25.60;95.50
18741;DHT22;9499;52.472;13.448;2022-08-21T14:56:11;25.40;96.10
18741;DHT22;9499;52.472;13.448;2022-08-21T14:58:41;25.30;96.70
18741;DHT22;9499;52.472;13.448;2022-08-21T15:01:09;25.20;97.10
18741;DHT22;9499;52.472;13.448;2022-08-21T15:03:38;25.10;97.00
18741;DHT22;9499;52.472;13.448;2022-08-21T15:06:05;25.10;97.10
18741;DHT22;9499;52.472;13.448;2022-08-21T15:08:33;25.10;97.90
18741;DHT22;9499;52.472;13.448;2022-08-21T15:11:00;25.10;98.50
18741;DHT22;9499;52.472;13.448;2022-08-21T15:13:28;25.10;98.30
18741;DHT22;9499;52.472;13.448;2022-08-21T15:15:54;25.10;99.10
18741;DHT22;9499;52.472;13.448;2022-08-21T15:18:21;25.00;99.90
18741;DHT22;9499;52.472;13.448;2022-08-21T15:20:50;25.00;99.90
18741;DHT22;9499;52.472;13.448;2022-08-21T15:23:16;25.00;99.90
18741;DHT22;9499;52.472;13.448;2022-08-21T15:25:45;25.10;99.90
18741;DHT22;9499;52.472;13.448;2022-08-21T15:28:12;25.10;99.90
18741;DHT22;9499;52.472;13.448;2022-08-21T15:30:40;25.10;99.90
18741;DHT22;9499;52.472;13.448;2022-08-21T15:33:08;25.10;99.90
18741;DHT22;9499;52.472;13.448;2022-08-21T15:35:35;25.20;99.90
18741;DHT22;9499;52.472;13.448;2022-08-21T15:38:03;25.10;99.90
18741;DHT22;9499;52.472;13.448;2022-08-21T15:40:30;25.10;99.90
18741;DHT22;9499;52.472;13.448;2022-08-21T15:43:00;25.10;99.90
18741;DHT22;9499;52.472;13.448;2022-08-21T15:45:27;25.20;99.90